Time;durP1;ratioP1;P1;durP2;ratioP2;P2;SDS_P1;SDS_P2;PMS_P1;PMS_P2;Temp;Humidity;BMP_temperature;BMP_pressure;BME280_temperature;BME280_humidity;BME280_pressure;Samples;Min_cycle;Max_cycle;Signal;HPM_P1;HPM_P2
2024/03/19 00:00:50;;;;;;;16.83;7.30;;;10.20;99.90;;;;;;5023944;28;20571;-71
2024/03/19 00:03:17;;;;;;;7.23;5.57;;;10.30;99.90;;;;;;5020602;28;20433;-69
2024/03/19 00:05:44;;;;;;;15.13;5.87;;;10.20;99.90;;;;;;5023155;28;20449;-70
2024/03/19 00:08:11;;;;;;;8.30;6.30;;;10.30;99.90;;;;;;5016985;28;20434;-70
2024/03/19 00:10:36;;;;;;;11.63;5.67;;;10.30;99.90;;;;;;5015017;28;20483;-69
2024/03/19 00:13:03;;;;;;;9.50;6.93;;;10.40;99.90;;;;;;5017678;28;21230;-69
2024/03/19 00:15:30;;;;;;;9.20;6.27;;;10.30;99.90;;;;;;5018823;28;20213;-70
2024/03/19 00:17:58;;;;;;;8.97;6.10;;;10.30;99.90;;;;;;5022245;28;20471;-70
2024/03/19 00:20:25;;;;;;;9.17;6.50;;;10.40;99.90;;;;;;5017419;28;20467;-69
2024/03/19 00:22:52;;;;;;;8.00;6.00;;;10.40;99.90;;;;;;5038105;28;21054;-69
2024/03/19 00:25:19;;;;;;;13.73;6.13;;;10.40;99.90;;;;;;5018926;28;20986;-69
2024/03/19 00:27:45;;;;;;;19.80;7.60;;;10.50;99.90;;;;;;5019818;28;20989;-69
2024/03/19 00:30:13;;;;;;;9.10;6.10;;;10.60;99.90;;;;;;5011793;28;20483;-70
2024/03/19 00:32:40;;;;;;;11.60;5.77;;;10.50;99.90;;;;;;5025754;28;21188;-70
2024/03/19 00:35:09;;;;;;;10.37;7.00;;;10.50;99.90;;;;;;5030669;28;20455;-70
2024/03/19 00:37:37;;;;;;;11.93;6.17;;;10.40;99.90;;;;;;5016970;28;21001;-71
2024/03/19 00:40:10;;;;;;;10.37;5.87;;;10.40;99.90;;;;;;5020081;28;20479;-70
2024/03/19 00:42:37;;;;;;;10.87;6.70;;;10.30;99.90;;;;;;5012244;28;20903;-69
2024/03/19 00:45:06;;;;;;;15.37;7.77;;;10.30;99.90;;;;;;5010866;28;20467;-69
2024/03/19 00:47:33;;;;;;;9.53;6.57;;;10.40;99.90;;;;;;5016620;28;21175;-69
2024/03/19 00:50:00;;;;;;;10.87;5.70;;;10.40;99.90;;;;;;5028892;28;21329;-70
2024/03/19 00:52:28;;;;;;;19.33;6.17;;;10.30;99.90;;;;;;5033831;28;20479;-70
2024/03/19 00:54:55;;;;;;;12.33;5.10;;;10.20;99.90;;;;;;5027323;28;20480;-70
2024/03/19 00:57:22;;;;;;;8.30;6.20;;;10.30;99.90;;;;;;5032458;28;20452;-69
2024/03/19 00:59:49;;;;;;;8.70;5.40;;;10.40;99.90;;;;;;5033124;28;20483;-69
2024/03/19 01:02:16;;;;;;;13.20;8.53;;;10.50;99.90;;;;;;5044162;28;20460;-69
2024/03/19 01:04:43;;;;;;;13.60;6.40;;;10.40;99.90;;;;;;5021925;22;20489;-69
2024/03/19 01:07:10;;;;;;;14.27;7.17;;;10.40;99.90;;;;;;4996546;28;20461;-68
2024/03/19 01:09:39;;;;;;;11.20;8.33;;;10.40;99.90;;;;;;4996706;28;20511;-69
2024/03/19 01:12:08;;;;;;;12.97;7.00;;;10.50;99.90;;;;;;4993041;28;20470;-69
2024/03/19 01:14:35;;;;;;;10.90;8.23;;;10.40;99.90;;;;;;4982817;28;20466;-68
2024/03/19 01:17:03;;;;;;;13.67;7.53;;;10.40;99.90;;;;;;4979017;28;20553;-69
2024/03/19 01:19:30;;;;;;;14.30;8.60;;;10.40;99.90;;;;;;4982285;28;20610;-69
2024/03/19 01:21:57;;;;;;;11.57;7.10;;;10.20;99.90;;;;;;4979804;28;20435;-69
2024/03/19 01:24:24;;;;;;;14.80;7.77;;;10.30;99.90;;;;;;4977290;28;21027;-68
2024/03/19 01:26:52;;;;;;;10.80;6.47;;;10.30;99.90;;;;;;4976036;28;20436;-68
2024/03/19 01:29:19;;;;;;;11.87;6.00;;;10.30;99.90;;;;;;4985325;28;20957;-69
2024/03/19 01:31:45;;;;;;;11.90;6.73;;;10.30;99.90;;;;;;4976398;28;20840;-68
2024/03/19 01:34:12;;;;;;;13.00;7.47;;;10.20;99.90;;;;;;4986977;28;21081;-68
2024/03/19 01:36:39;;;;;;;10.67;6.57;;;10.30;99.90;;;;;;4975128;28;20471;-68
2024/03/19 01:39:07;;;;;;;12.50;6.93;;;10.20;99.90;;;;;;4982885;28;20441;-68
2024/03/19 01:41:34;;;;;;;9.73;7.27;;;10.10;99.90;;;;;;4979807;28;20464;-69
2024/03/19 01:44:02;;;;;;;13.90;6.47;;;10.10;99.90;;;;;;4985178;28;20447;-69
2024/03/19 01:46:30;;;;;;;14.77;7.23;;;10.00;99.90;;;;;;4982685;28;20465;-68
2024/03/19 01:48:59;;;;;;;9.10;6.17;;;10.00;99.90;;;;;;4979343;28;21050;-68
2024/03/19 01:51:27;;;;;;;13.60;7.17;;;9.90;99.90;;;;;;4982862;28;20458;-69
2024/03/19 01:53:55;;;;;;;10.67;7.50;;;9.90;99.90;;;;;;4984221;28;20523;-69
2024/03/19 01:56:23;;;;;;;15.90;8.77;;;9.90;99.90;;;;;;4979989;28;20552;-70
2024/03/19 01:58:51;;;;;;;19.13;5.93;;;9.90;99.90;;;;;;4980861;28;20463;-69
2024/03/19 02:01:18;;;;;;;11.93;6.20;;;9.90;99.90;;;;;;4989399;28;20813;-69
2024/03/19 02:03:45;;;;;;;9.30;5.93;;;9.80;99.90;;;;;;4996740;28;20436;-69
2024/03/19 02:06:13;;;;;;;6.20;5.20;;;9.90;99.90;;;;;;4986357;28;20903;-69
2024/03/19 02:08:40;;;;;;;10.77;6.77;;;9.90;99.90;;;;;;4999845;28;20512;-69
2024/03/19 02:11:09;;;;;;;9.67;5.87;;;9.90;99.90;;;;;;4993905;28;20580;-69
2024/03/19 02:13:35;;;;;;;11.00;5.90;;;9.90;99.90;;;;;;4992748;28;20511;-69
2024/03/19 02:16:03;;;;;;;11.97;6.43;;;9.90;99.90;;;;;;4989026;28;20467;-69
2024/03/19 02:18:31;;;;;;;14.57;6.17;;;10.00;99.90;;;;;;4998085;28;20516;-69
2024/03/19 02:20:58;;;;;;;9.17;6.03;;;9.90;99.90;;;;;;4996449;28;20840;-68
2024/03/19 02:23:26;;;;;;;12.87;7.23;;;10.00;99.90;;;;;;4997811;28;20504;-69
2024/03/19 02:25:52;;;;;;;9.77;6.60;;;9.90;99.90;;;;;;4995894;28;20439;-68
2024/03/19 02:28:19;;;;;;;20.80;9.07;;;9.90;99.90;;;;;;4996571;28;20472;-70
2024/03/19 02:30:46;;;;;;;14.40;7.30;;;9.80;99.90;;;;;;4999277;28;20834;-70
2024/03/19 02:33:13;;;;;;;14.83;6.80;;;9.80;99.90;;;;;;4996178;28;20929;-69
2024/03/19 02:35:40;;;;;;;11.27;7.63;;;9.80;99.90;;;;;;5000259;28;20929;-69
2024/03/19 02:38:07;;;;;;;9.43;7.50;;;9.80;99.90;;;;;;4991852;28;20822;-69
2024/03/19 02:40:35;;;;;;;10.27;7.73;;;9.70;99.90;;;;;;4997688;28;20468;-69
2024/03/19 02:43:02;;;;;;;14.40;6.60;;;9.60;99.90;;;;;;4990555;28;20567;-68
2024/03/19 02:45:29;;;;;;;11.73;6.70;;;9.40;99.90;;;;;;4999635;28;20472;-68
2024/03/19 02:47:56;;;;;;;12.97;9.17;;;9.20;99.90;;;;;;4995916;28;20980;-69
2024/03/19 02:50:23;;;;;;;10.67;6.23;;;9.20;99.90;;;;;;5000960;28;21138;-68
2024/03/19 02:52:50;;;;;;;13.63;7.17;;;9.20;99.90;;;;;;4992130;28;20556;-68
2024/03/19 02:55:16;;;;;;;21.37;6.07;;;9.20;99.90;;;;;;5000354;28;20485;-68
2024/03/19 02:57:45;;;;;;;10.33;7.27;;;9.30;99.90;;;;;;4995794;28;20444;-69
2024/03/19 03:00:13;;;;;;;12.07;7.43;;;9.30;99.90;;;;;;4995159;28;20448;-69
2024/03/19 03:02:40;;;;;;;10.37;5.67;;;9.40;99.90;;;;;;4999021;28;21281;-68
2024/03/19 03:05:07;;;;;;;8.10;6.00;;;9.40;99.90;;;;;;4999270;28;20465;-69
2024/03/19 03:07:34;;;;;;;14.20;8.00;;;9.30;99.90;;;;;;4994878;28;20584;-69
2024/03/19 03:10:03;;;;;;;12.97;8.03;;;9.30;99.90;;;;;;4997691;28;20489;-69
2024/03/19 03:12:30;;;;;;;10.57;5.97;;;9.30;99.90;;;;;;4993062;28;20457;-68
2024/03/19 03:14:58;;;;;;;14.27;7.43;;;9.30;99.90;;;;;;4998202;28;20461;-69
2024/03/19 03:17:25;;;;;;;10.83;6.73;;;9.30;99.90;;;;;;4989921;28;20501;-69
2024/03/19 03:19:52;;;;;;;11.03;7.37;;;9.30;99.90;;;;;;4996157;28;20509;-68
2024/03/19 03:22:19;;;;;;;6.57;5.60;;;9.30;99.90;;;;;;4988211;28;20532;-68
2024/03/19 03:24:45;;;;;;;9.40;6.50;;;9.30;99.90;;;;;;4997782;28;20484;-68
2024/03/19 03:27:13;;;;;;;12.00;6.70;;;9.40;99.90;;;;;;4994568;28;20465;-69
2024/03/19 03:29:40;;;;;;;17.53;6.63;;;9.50;99.90;;;;;;4991719;28;21142;-69
2024/03/19 03:32:09;;;;;;;13.00;8.00;;;9.50;99.90;;;;;;4993315;28;21602;-69
2024/03/19 03:34:37;;;;;;;14.63;7.60;;;9.50;99.90;;;;;;4998378;28;20467;-69
2024/03/19 03:37:07;;;;;;;13.83;6.70;;;9.60;99.90;;;;;;4992672;28;20555;-70
2024/03/19 03:39:33;;;;;;;7.20;5.40;;;9.60;99.90;;;;;;4991591;28;20551;-68
2024/03/19 03:42:02;;;;;;;11.57;6.50;;;9.50;99.90;;;;;;4990337;28;20461;-68
2024/03/19 03:44:29;;;;;;;16.63;6.37;;;9.50;99.90;;;;;;4995722;28;20963;-69
2024/03/19 03:46:56;;;;;;;10.73;6.53;;;9.50;99.90;;;;;;4995088;28;20469;-68
2024/03/19 03:49:24;;;;;;;12.37;6.30;;;9.50;99.90;;;;;;4992041;28;20931;-69
2024/03/19 03:51:51;;;;;;;11.77;6.60;;;9.50;99.90;;;;;;4991949;28;20466;-69
2024/03/19 03:54:18;;;;;;;11.40;6.03;;;9.50;99.90;;;;;;4992905;28;20528;-69
2024/03/19 03:56:45;;;;;;;12.97;8.37;;;9.50;99.90;;;;;;4984513;28;20448;-69
2024/03/19 03:59:11;;;;;;;7.90;4.73;;;9.50;99.90;;;;;;4986247;28;20488;-69
2024/03/19 04:01:39;;;;;;;9.33;7.83;;;9.40;99.90;;;;;;4993914;28;20519;-70
2024/03/19 04:04:06;;;;;;;17.00;5.90;;;9.30;99.90;;;;;;4981824;28;21914;-69
2024/03/19 04:06:34;;;;;;;14.97;8.10;;;9.40;99.90;;;;;;4988957;28;21030;-68
2024/03/19 04:09:00;;;;;;;9.47;6.33;;;9.40;99.90;;;;;;5001213;28;20461;-68
2024/03/19 04:11:27;;;;;;;8.20;5.60;;;9.40;99.90;;;;;;4990418;28;20478;-68
2024/03/19 04:13:54;;;;;;;11.97;5.97;;;9.40;99.90;;;;;;4996456;28;20465;-68
2024/03/19 04:16:21;;;;;;;15.93;8.17;;;9.50;99.90;;;;;;4991377;28;20890;-68
2024/03/19 04:18:48;;;;;;;20.00;7.50;;;9.40;99.90;;;;;;4988549;28;20896;-68
2024/03/19 04:21:14;;;;;;;14.50;7.67;;;9.40;99.90;;;;;;4989703;28;20488;-69
2024/03/19 04:23:43;;;;;;;15.73;6.40;;;9.40;99.90;;;;;;4996831;28;20464;-69
2024/03/19 04:26:10;;;;;;;21.27;7.37;;;9.50;99.90;;;;;;4991425;28;20448;-69
2024/03/19 04:28:37;;;;;;;7.87;6.57;;;9.50;99.90;;;;;;4984387;28;20473;-70
2024/03/19 04:31:03;;;;;;;8.90;5.93;;;9.50;99.90;;;;;;4985532;28;20737;-69
2024/03/19 04:33:30;;;;;;;11.60;6.60;;;9.60;99.90;;;;;;4991139;28;20858;-69
2024/03/19 04:36:03;;;;;;;15.50;6.77;;;9.70;99.90;;;;;;4995472;28;20571;-69
2024/03/19 04:38:29;;;;;;;7.20;6.20;;;9.60;99.90;;;;;;4991738;28;20447;-70
2024/03/19 04:40:57;;;;;;;11.90;7.50;;;9.50;99.90;;;;;;4994293;28;20481;-69
2024/03/19 04:43:24;;;;;;;18.90;6.10;;;9.60;99.90;;;;;;4992021;28;20462;-69
2024/03/19 04:45:53;;;;;;;14.90;7.80;;;9.70;99.90;;;;;;4997384;28;20516;-69
2024/03/19 04:48:20;;;;;;;11.63;5.83;;;9.80;99.90;;;;;;4988503;28;20915;-69
2024/03/19 04:50:47;;;;;;;10.43;6.80;;;9.70;99.90;;;;;;4998383;28;20860;-70
2024/03/19 04:53:15;;;;;;;10.17;5.23;;;9.70;99.90;;;;;;5000747;28;20472;-69
2024/03/19 04:55:42;;;;;;;21.27;8.03;;;9.70;99.90;;;;;;4993857;28;20441;-69
2024/03/19 04:58:10;;;;;;;11.60;7.43;;;9.70;99.90;;;;;;4988776;28;20474;-70
2024/03/19 05:00:37;;;;;;;9.07;6.13;;;9.70;99.90;;;;;;4994881;28;20544;-71
2024/03/19 05:03:04;;;;;;;9.37;7.60;;;9.60;99.90;;;;;;4990543;28;20543;-69
2024/03/19 05:05:31;;;;;;;8.13;6.10;;;9.60;99.90;;;;;;4999238;28;20440;-69
2024/03/19 05:07:58;;;;;;;10.50;7.10;;;9.60;99.90;;;;;;4996034;28;20462;-70
2024/03/19 05:10:25;;;;;;;11.33;7.20;;;9.70;99.90;;;;;;4990386;28;20512;-70
2024/03/19 05:12:52;;;;;;;12.07;6.77;;;9.70;99.90;;;;;;4996662;28;20584;-69
2024/03/19 05:15:20;;;;;;;12.50;6.90;;;9.70;99.90;;;;;;4996430;28;21964;-69
2024/03/19 05:17:47;;;;;;;17.07;7.13;;;9.70;99.90;;;;;;5003014;28;20465;-69
2024/03/19 05:20:14;;;;;;;22.33;8.47;;;9.70;99.90;;;;;;4995360;28;20812;-69
2024/03/19 05:22:41;;;;;;;14.00;8.60;;;9.80;99.90;;;;;;4996647;28;20910;-70
2024/03/19 05:25:08;;;;;;;15.77;8.07;;;9.80;99.90;;;;;;4993106;28;20473;-70
2024/03/19 05:27:35;;;;;;;13.43;7.53;;;9.80;99.90;;;;;;4992751;28;20552;-70
2024/03/19 05:30:02;;;;;;;13.00;7.67;;;9.80;99.90;;;;;;4994007;28;20554;-70
2024/03/19 05:32:30;;;;;;;26.53;8.00;;;9.90;99.90;;;;;;4979060;28;20546;-70
2024/03/19 05:34:57;;;;;;;11.97;8.07;;;9.90;99.90;;;;;;4991692;28;20507;-70
2024/03/19 05:37:23;;;;;;;17.07;8.50;;;9.90;99.90;;;;;;4993983;28;20467;-70
2024/03/19 05:39:50;;;;;;;11.87;7.30;;;9.90;99.90;;;;;;4986489;28;20517;-70
2024/03/19 05:42:17;;;;;;;13.13;6.80;;;9.90;99.90;;;;;;4988171;28;20543;-70
2024/03/19 05:44:44;;;;;;;16.03;6.67;;;9.90;99.90;;;;;;4989885;28;20470;-69
2024/03/19 05:47:14;;;;;;;18.10;8.20;;;10.00;99.90;;;;;;4994042;28;20496;-69
2024/03/19 05:49:42;;;;;;;17.50;7.30;;;10.00;99.90;;;;;;4996266;28;20540;-70
2024/03/19 05:52:09;;;;;;;14.33;7.47;;;10.00;99.90;;;;;;4998132;28;20804;-69
2024/03/19 05:54:36;;;;;;;14.90;6.87;;;10.00;99.90;;;;;;5000450;28;20474;-70
2024/03/19 05:57:03;;;;;;;12.20;6.17;;;10.00;99.90;;;;;;4993048;28;20484;-70
2024/03/19 05:59:29;;;;;;;11.17;6.87;;;10.00;99.90;;;;;;4997192;28;20481;-70
2024/03/19 06:01:56;;;;;;;14.90;9.13;;;9.90;99.90;;;;;;4994020;28;20463;-69
2024/03/19 06:04:23;;;;;;;14.50;6.40;;;9.90;99.90;;;;;;4998290;28;20461;-69
2024/03/19 06:06:51;;;;;;;18.83;7.57;;;9.90;99.90;;;;;;4993807;28;20901;-69
2024/03/19 06:09:18;;;;;;;18.67;8.37;;;9.90;99.90;;;;;;4996121;28;20478;-69
2024/03/19 06:11:47;;;;;;;14.10;6.47;;;9.90;99.90;;;;;;4991646;28;20592;-69
2024/03/19 06:14:14;;;;;;;14.63;6.60;;;9.90;99.90;;;;;;5000098;28;20768;-69
2024/03/19 06:16:41;;;;;;;24.60;9.00;;;10.00;99.90;;;;;;4996964;28;20905;-69
2024/03/19 06:19:08;;;;;;;14.87;8.30;;;10.10;99.90;;;;;;4997171;28;20555;-69
2024/03/19 06:21:34;;;;;;;14.43;7.50;;;10.20;99.90;;;;;;4996534;28;20432;-70
2024/03/19 06:24:04;;;;;;;18.90;10.37;;;10.20;99.90;;;;;;4998633;28;20498;-69
2024/03/19 06:26:31;;;;;;;24.37;7.50;;;10.30;99.90;;;;;;4990409;28;20506;-69
2024/03/19 06:28:58;;;;;;;14.37;7.10;;;10.20;99.90;;;;;;4996116;28;20978;-69
2024/03/19 06:31:25;;;;;;;10.27;6.30;;;10.40;99.90;;;;;;4995349;28;20497;-69
2024/03/19 06:33:52;;;;;;;12.70;7.70;;;10.40;99.90;;;;;;4996191;28;20497;-69
2024/03/19 06:36:19;;;;;;;17.07;7.77;;;10.50;99.90;;;;;;4998461;28;20465;-69
2024/03/19 06:38:46;;;;;;;15.10;5.93;;;10.60;99.90;;;;;;4996887;28;20477;-69
2024/03/19 06:41:15;;;;;;;12.43;6.53;;;10.60;99.90;;;;;;5002461;28;20455;-70
2024/03/19 06:43:42;;;;;;;12.47;7.27;;;10.80;99.90;;;;;;4995654;28;20512;-71
2024/03/19 06:46:09;;;;;;;9.83;5.90;;;10.90;99.90;;;;;;4997900;28;20508;-71
2024/03/19 06:48:36;;;;;;;11.43;7.50;;;11.00;99.90;;;;;;4995547;28;20481;-70
2024/03/19 06:51:03;;;;;;;13.47;8.83;;;10.90;99.90;;;;;;4996840;28;20488;-70
2024/03/19 06:53:30;;;;;;;14.60;8.33;;;11.00;99.90;;;;;;5001229;28;20450;-70
2024/03/19 06:55:57;;;;;;;16.10;8.57;;;11.00;99.90;;;;;;5005950;28;20464;-68
2024/03/19 06:58:26;;;;;;;10.50;6.87;;;11.10;99.90;;;;;;5002057;28;20469;-71
2024/03/19 07:00:53;;;;;;;13.53;8.33;;;11.10;99.90;;;;;;5001451;28;20508;-71
2024/03/19 07:03:20;;;;;;;12.50;7.53;;;11.20;99.90;;;;;;5002338;28;20461;-70
2024/03/19 07:05:50;;;;;;;10.50;7.30;;;11.30;99.90;;;;;;5001453;28;20541;-71
2024/03/19 07:08:17;;;;;;;16.83;7.03;;;11.30;99.90;;;;;;5001468;28;20435;-70
2024/03/19 07:10:43;;;;;;;12.20;7.33;;;11.30;99.90;;;;;;5002968;28;20482;-70
2024/03/19 07:13:10;;;;;;;15.40;7.40;;;11.30;99.90;;;;;;5003436;28;20461;-69
2024/03/19 07:18:24;;;;;;;14.10;6.80;;;11.60;99.90;;;;;;5192640;23;20484;-69
2024/03/19 07:20:51;;;;;;;12.27;9.20;;;11.60;99.90;;;;;;5003736;28;20482;-69
2024/03/19 07:23:18;;;;;;;13.33;6.97;;;11.60;99.90;;;;;;4999816;28;20841;-70
2024/03/19 07:25:45;;;;;;;21.60;9.60;;;11.80;99.90;;;;;;5003587;28;20479;-70
2024/03/19 07:28:12;;;;;;;12.60;6.93;;;11.90;99.90;;;;;;4997872;28;20834;-70
2024/03/19 07:30:39;;;;;;;12.50;6.70;;;12.00;99.90;;;;;;5002792;28;20447;-70
2024/03/19 07:33:06;;;;;;;17.60;7.90;;;12.10;99.90;;;;;;5002673;28;20533;-70
2024/03/19 07:35:35;;;;;;;14.70;6.53;;;12.20;99.90;;;;;;4999825;28;20456;-70
2024/03/19 07:38:02;;;;;;;22.17;9.00;;;12.30;99.90;;;;;;5004732;28;21051;-70
2024/03/19 07:40:30;;;;;;;16.03;7.20;;;12.10;99.90;;;;;;5002568;28;20569;-70
2024/03/19 07:42:58;;;;;;;12.30;6.40;;;12.30;99.90;;;;;;4999941;28;20462;-69
2024/03/19 07:45:25;;;;;;;9.90;6.30;;;12.50;99.90;;;;;;4981522;28;20969;-69
2024/03/19 07:47:52;;;;;;;19.90;7.20;;;12.50;99.90;;;;;;5002103;28;20572;-69
2024/03/19 07:50:22;;;;;;;14.70;6.10;;;12.60;99.90;;;;;;4999931;28;20485;-69
2024/03/19 07:52:50;;;;;;;13.83;6.93;;;12.50;99.90;;;;;;5000399;28;20473;-69
2024/03/19 07:55:17;;;;;;;10.67;5.87;;;12.60;99.90;;;;;;5001470;28;20439;-71
2024/03/19 07:57:45;;;;;;;19.93;7.27;;;12.70;99.90;;;;;;4999244;28;20532;-69
2024/03/19 08:00:14;;;;;;;15.20;6.30;;;12.80;99.90;;;;;;4996572;28;20523;-69
2024/03/19 08:02:41;;;;;;;12.47;6.17;;;12.80;99.90;;;;;;5003344;28;20453;-69
2024/03/19 08:05:08;;;;;;;15.80;7.43;;;12.90;99.90;;;;;;4997533;28;20461;-69
2024/03/19 08:07:36;;;;;;;19.93;6.27;;;12.80;99.90;;;;;;4997590;28;20460;-69
2024/03/19 08:10:04;;;;;;;19.20;7.53;;;12.80;99.90;;;;;;4994802;28;20481;-70
2024/03/19 08:12:31;;;;;;;15.20;6.70;;;12.90;99.90;;;;;;5002277;28;20471;-70
2024/03/19 08:15:00;;;;;;;19.30;7.90;;;12.90;99.90;;;;;;4996858;28;20469;-70
2024/03/19 08:17:27;;;;;;;22.43;6.93;;;12.90;99.90;;;;;;4997993;28;20607;-70
2024/03/19 08:19:54;;;;;;;12.33;6.20;;;12.90;99.90;;;;;;5001430;28;20490;-70
2024/03/19 08:22:21;;;;;;;9.10;6.07;;;13.00;99.90;;;;;;5003875;28;20461;-70
2024/03/19 08:24:48;;;;;;;10.03;6.53;;;13.10;99.90;;;;;;4996865;28;20579;-69
2024/03/19 08:27:17;;;;;;;11.70;6.07;;;13.30;99.90;;;;;;5001813;28;20461;-70
2024/03/19 08:29:43;;;;;;;11.23;7.07;;;13.30;99.90;;;;;;4996143;28;20482;-69
2024/03/19 08:32:10;;;;;;;19.23;7.63;;;13.40;99.90;;;;;;5002765;28;20980;-69
2024/03/19 08:34:37;;;;;;;13.50;6.73;;;13.60;99.90;;;;;;4999095;28;20969;-70
2024/03/19 08:37:05;;;;;;;12.53;6.93;;;13.50;99.90;;;;;;5001884;28;20855;-70
2024/03/19 08:39:32;;;;;;;11.53;6.73;;;13.60;99.90;;;;;;5004113;28;20481;-69
2024/03/19 08:41:59;;;;;;;10.40;5.97;;;13.80;99.90;;;;;;4999515;28;20480;-70
2024/03/19 08:44:27;;;;;;;14.63;6.60;;;14.00;99.90;;;;;;5006187;28;20469;-70
2024/03/19 08:46:54;;;;;;;14.10;7.53;;;14.40;99.90;;;;;;5000457;28;20543;-70
2024/03/19 08:49:20;;;;;;;11.90;7.83;;;15.00;99.90;;;;;;5006598;28;20492;-69
2024/03/19 08:51:47;;;;;;;13.73;8.17;;;15.50;99.90;;;;;;5003893;28;20481;-70
2024/03/19 08:54:14;;;;;;;25.90;7.87;;;15.60;99.90;;;;;;5003261;28;20466;-69
2024/03/19 08:56:41;;;;;;;11.60;5.83;;;15.60;99.90;;;;;;5002731;28;20866;-69
2024/03/19 08:59:08;;;;;;;18.77;8.33;;;15.80;99.90;;;;;;5010136;28;20826;-69
2024/03/19 09:01:36;;;;;;;17.20;7.90;;;16.20;99.90;;;;;;5002558;28;21075;-69
2024/03/19 09:04:04;;;;;;;13.53;8.10;;;16.40;99.90;;;;;;5002967;28;20465;-69
2024/03/19 09:06:31;;;;;;;14.77;6.73;;;16.60;99.90;;;;;;5003926;28;20465;-71
2024/03/19 09:08:58;;;;;;;13.70;5.73;;;16.80;99.90;;;;;;5001739;28;20461;-69
2024/03/19 09:11:25;;;;;;;13.23;7.10;;;17.10;99.90;;;;;;5004744;28;20456;-70
2024/03/19 09:13:52;;;;;;;16.93;8.70;;;17.10;99.90;;;;;;5000370;28;20824;-69
2024/03/19 09:16:18;;;;;;;19.37;8.40;;;17.30;99.90;;;;;;5002342;28;20497;-69
2024/03/19 09:18:46;;;;;;;13.77;6.37;;;17.40;99.90;;;;;;4999926;28;20465;-69
2024/03/19 09:21:13;;;;;;;16.43;9.30;;;17.40;99.90;;;;;;4999928;28;20476;-70
2024/03/19 09:23:40;;;;;;;10.83;6.93;;;17.70;99.90;;;;;;5001290;28;20808;-70
2024/03/19 09:26:08;;;;;;;10.87;7.57;;;18.10;99.90;;;;;;5003196;28;20460;-70
2024/03/19 09:28:35;;;;;;;18.40;7.03;;;18.40;99.90;;;;;;5000243;28;20465;-70
2024/03/19 09:31:02;;;;;;;12.40;5.83;;;19.30;99.90;;;;;;4982408;28;20541;-70
2024/03/19 09:33:30;;;;;;;12.37;5.60;;;18.80;99.90;;;;;;5001977;28;20487;-70
2024/03/19 09:35:58;;;;;;;11.77;5.13;;;18.30;99.90;;;;;;5003140;28;20583;-71
2024/03/19 09:38:25;;;;;;;9.93;4.80;;;18.30;99.90;;;;;;5005249;28;20465;-71
2024/03/19 09:40:55;;;;;;;6.67;3.83;;;18.30;99.90;;;;;;5001489;28;20486;-70
2024/03/19 09:43:23;;;;;;;7.50;3.23;;;17.90;99.90;;;;;;4998132;28;20987;-70
2024/03/19 09:45:50;;;;;;;7.47;4.60;;;17.90;99.90;;;;;;4998611;28;20906;-70
2024/03/19 09:48:19;;;;;;;11.17;5.57;;;17.90;99.90;;;;;;4998664;28;20454;-70
2024/03/19 09:50:47;;;;;;;9.63;4.60;;;18.30;99.90;;;;;;4992497;28;20835;-71
2024/03/19 09:53:19;;;;;;;10.13;5.53;;;18.30;99.90;;;;;;4995765;28;20979;-70
2024/03/19 09:55:46;;;;;;;6.97;5.17;;;19.00;99.90;;;;;;5000140;28;20510;-69
2024/03/19 09:58:13;;;;;;;7.10;3.33;;;19.40;99.90;;;;;;5002878;28;20492;-69
2024/03/19 10:00:42;;;;;;;5.10;3.73;;;19.20;99.90;;;;;;4998017;28;20488;-70
2024/03/19 10:03:09;;;;;;;8.33;5.00;;;19.40;99.90;;;;;;4993309;28;20473;-69
2024/03/19 10:05:35;;;;;;;8.50;4.20;;;18.90;99.90;;;;;;4994681;28;20470;-70
2024/03/19 10:08:04;;;;;;;8.50;4.90;;;19.10;99.90;;;;;;5001857;28;20472;-70
2024/03/19 10:10:32;;;;;;;6.17;3.43;;;18.90;99.90;;;;;;4994862;28;20957;-70
2024/03/19 10:12:59;;;;;;;12.43;3.60;;;19.10;99.90;;;;;;4999452;28;20477;-69
2024/03/19 10:15:27;;;;;;;2.77;1.90;;;19.80;99.90;;;;;;5003228;28;20800;-70
2024/03/19 10:17:56;;;;;;;7.20;3.53;;;20.20;99.90;;;;;;5001605;28;20469;-69
2024/03/19 10:20:25;;;;;;;5.17;3.03;;;20.30;99.90;;;;;;4999341;28;20513;-69
2024/03/19 10:22:52;;;;;;;6.73;3.40;;;19.70;99.90;;;;;;5002073;28;20484;-70
2024/03/19 10:25:19;;;;;;;7.43;3.23;;;19.90;99.90;;;;;;4999334;28;20925;-70
2024/03/19 10:27:48;;;;;;;17.20;4.93;;;20.50;99.90;;;;;;4992352;28;20466;-70
2024/03/19 10:30:16;;;;;;;7.27;4.53;;;20.30;99.90;;;;;;5000243;28;20492;-70
2024/03/19 10:32:44;;;;;;;9.77;8.03;;;20.40;99.90;;;;;;5004602;28;20477;-70
2024/03/19 10:35:18;;;;;;;3.50;2.80;;;20.90;99.90;;;;;;5006829;28;20461;-70
2024/03/19 10:37:46;;;;;;;6.40;2.90;;;21.50;99.90;;;;;;5005649;28;20969;-70
2024/03/19 10:40:14;;;;;;;2.73;2.30;;;21.50;99.90;;;;;;4999538;28;20484;-70
2024/03/19 10:42:41;;;;;;;3.50;1.90;;;21.40;99.90;;;;;;4999260;28;20477;-70
2024/03/19 10:45:16;;;;;;;5.83;1.47;;;21.10;99.90;;;;;;5003180;28;20542;-70
2024/03/19 10:47:44;;;;;;;2.50;1.37;;;20.80;99.90;;;;;;5001328;28;20452;-71
2024/03/19 10:50:14;;;;;;;2.27;1.77;;;21.10;99.90;;;;;;4999724;28;20536;-69
2024/03/19 10:52:46;;;;;;;4.87;2.07;;;21.30;99.90;;;;;;5005641;28;20476;-69
2024/03/19 10:55:16;;;;;;;6.03;2.37;;;21.40;99.90;;;;;;5001276;28;20477;-70
2024/03/19 10:57:43;;;;;;;3.47;2.00;;;21.70;99.90;;;;;;5007697;28;20964;-70
2024/03/19 11:00:25;;;;;;;6.10;2.30;;;21.80;99.90;;;;;;5004627;28;20499;-69
2024/03/19 11:02:55;;;;;;;6.17;3.00;;;21.90;99.90;;;;;;4994591;28;20503;-70
2024/03/19 11:05:23;;;;;;;3.23;1.90;;;22.00;99.90;;;;;;5004350;28;20817;-69
2024/03/19 11:07:50;;;;;;;5.57;2.53;;;21.90;99.90;;;;;;5001489;28;20493;-70
2024/03/19 11:10:22;;;;;;;4.70;2.30;;;21.60;99.90;;;;;;5004159;28;20477;-70
2024/03/19 11:12:56;;;;;;;11.90;3.73;;;21.40;99.90;;;;;;5000494;28;20488;-70
2024/03/19 11:15:25;;;;;;;4.40;2.60;;;20.90;99.90;;;;;;5004604;28;20484;-70
2024/03/19 11:17:52;;;;;;;3.20;1.90;;;20.60;99.90;;;;;;5005214;28;20476;-70
2024/03/19 11:20:18;;;;;;;13.50;2.40;;;20.60;99.90;;;;;;5009343;28;21050;-70
2024/03/19 11:22:48;;;;;;;4.10;2.73;;;20.90;99.90;;;;;;4988601;28;20465;-70
2024/03/19 11:25:16;;;;;;;2.40;1.97;;;20.70;99.90;;;;;;5004118;28;20466;-69
2024/03/19 11:27:50;;;;;;;2.43;2.20;;;20.30;99.90;;;;;;5002861;28;20466;-70
2024/03/19 11:30:18;;;;;;;3.20;1.70;;;20.30;99.90;;;;;;4995918;28;20551;-69
2024/03/19 11:32:49;;;;;;;3.67;2.50;;;20.40;99.90;;;;;;4991137;28;20562;-70
2024/03/19 11:35:20;;;;;;;3.80;1.80;;;20.20;99.90;;;;;;5003123;28;20829;-69
2024/03/19 11:37:49;;;;;;;9.37;2.33;;;20.40;99.90;;;;;;5003731;28;20465;-70
2024/03/19 11:40:16;;;;;;;4.90;2.13;;;20.50;99.90;;;;;;4996307;28;20482;-70
2024/03/19 11:42:43;;;;;;;2.00;1.63;;;20.30;99.90;;;;;;4997594;28;20557;-70
2024/03/19 11:45:16;;;;;;;3.77;2.63;;;20.30;99.90;;;;;;5005255;28;20790;-70
2024/03/19 11:47:44;;;;;;;2.50;1.90;;;20.20;99.90;;;;;;4999759;28;20461;-69
2024/03/19 11:50:18;;;;;;;6.27;1.70;;;21.00;99.90;;;;;;4990957;28;20588;-70
2024/03/19 11:52:45;;;;;;;2.80;1.93;;;21.20;99.90;;;;;;4996581;28;20539;-70
2024/03/19 11:55:12;;;;;;;3.43;2.17;;;21.90;99.90;;;;;;4991919;28;20461;-70
2024/03/19 11:57:39;;;;;;;6.53;2.07;;;22.40;99.90;;;;;;4998831;28;21081;-71
2024/03/19 12:00:11;;;;;;;3.10;2.37;;;22.40;99.90;;;;;;4999089;28;20484;-70
2024/03/19 12:02:39;;;;;;;3.57;2.33;;;21.70;99.90;;;;;;4998129;28;21350;-69
2024/03/19 12:05:12;;;;;;;4.80;2.37;;;20.50;99.90;;;;;;4995969;28;20503;-69
2024/03/19 12:07:43;;;;;;;10.97;2.70;;;20.30;99.90;;;;;;5002923;28;20565;-70
2024/03/19 12:10:22;;;;;;;10.83;3.20;;;20.10;99.90;;;;;;4999749;28;20477;-70
2024/03/19 12:12:49;;;;;;;6.60;3.23;;;20.10;99.90;;;;;;4986379;28;20505;-69
2024/03/19 12:15:16;;;;;;;10.50;3.43;;;19.90;99.90;;;;;;4996262;28;20996;-70
2024/03/19 12:17:46;;;;;;;6.33;3.30;;;21.00;99.90;;;;;;5000442;28;20843;-69
2024/03/19 12:20:13;;;;;;;5.90;2.97;;;21.40;99.90;;;;;;4995701;28;20489;-70
2024/03/19 12:22:41;;;;;;;10.13;4.00;;;21.80;99.90;;;;;;4991822;28;20453;-70
2024/03/19 12:25:10;;;;;;;5.97;2.10;;;23.30;99.90;;;;;;4995351;28;20812;-70
2024/03/19 12:27:39;;;;;;;4.77;2.93;;;24.80;99.90;;;;;;4996473;28;20469;-71
2024/03/19 12:30:10;;;;;;;4.77;2.60;;;24.80;99.90;;;;;;4992738;28;21445;-71
2024/03/19 12:32:37;;;;;;;12.40;3.57;;;25.40;99.90;;;;;;4999557;28;20524;-71
2024/03/19 12:35:13;;;;;;;3.30;2.20;;;25.90;99.90;;;;;;5002831;28;20467;-69
2024/03/19 12:37:41;;;;;;;6.07;2.47;;;25.70;98.80;;;;;;4998072;28;20472;-71
2024/03/19 12:40:10;;;;;;;3.20;2.00;;;25.40;97.70;;;;;;4999839;28;21000;-70
2024/03/19 12:42:37;;;;;;;3.30;1.80;;;25.60;97.50;;;;;;4999308;28;20474;-70
2024/03/19 12:45:07;;;;;;;5.20;2.23;;;26.30;97.70;;;;;;5002726;28;20486;-69
2024/03/19 12:47:34;;;;;;;3.53;1.40;;;26.00;96.50;;;;;;5008243;28;20469;-69